createdAt,value
2023-03-11T00:00:36.689Z,46.02
2023-03-11T00:01:37.488Z,45.84
2023-03-11T00:02:38.020Z,45.87
2023-03-11T00:03:38.821Z,45.81
2023-03-11T00:04:39.658Z,45.70
2023-03-11T00:05:40.297Z,45.66
2023-03-11T00:06:41.139Z,45.66
2023-03-11T00:07:41.932Z,45.51
2023-03-11T00:08:42.488Z,45.46
2023-03-11T00:09:43.311Z,45.47
2023-03-11T00:10:44.112Z,45.37
2023-03-11T00:11:44.656Z,45.47
2023-03-11T00:12:45.463Z,45.33
2023-03-11T00:13:46.268Z,45.29
2023-03-11T00:14:46.830Z,45.34
2023-03-11T00:15:47.632Z,45.47
2023-03-11T00:16:48.453Z,45.41
2023-03-11T00:17:48.986Z,45.26
2023-03-11T00:18:49.798Z,45.27
2023-03-11T00:19:50.613Z,45.40
2023-03-11T00:20:51.153Z,45.48
2023-03-11T00:21:51.952Z,45.37
2023-03-11T00:22:52.764Z,45.28
2023-03-11T00:23:53.306Z,45.29
2023-03-11T00:24:54.135Z,45.33
2023-03-11T00:25:54.933Z,45.44
2023-03-11T00:26:55.469Z,45.44
2023-03-11T00:27:56.271Z,45.53
2023-03-11T00:28:57.062Z,45.56
2023-03-11T00:29:57.620Z,45.51
2023-03-11T00:30:58.477Z,45.46
2023-03-11T00:31:59.218Z,45.49
2023-03-11T00:32:59.768Z,45.56
2023-03-11T00:34:00.581Z,45.55
2023-03-11T00:35:01.414Z,45.50
2023-03-11T00:36:02.012Z,45.52
2023-03-11T00:37:02.801Z,45.54
2023-03-11T00:38:03.605Z,45.58
2023-03-11T00:39:04.148Z,45.61
2023-03-11T00:40:04.962Z,45.61
2023-03-11T00:41:05.770Z,45.65
2023-03-11T00:42:06.304Z,45.68
2023-03-11T00:43:07.124Z,45.71
2023-03-11T00:44:07.950Z,45.73
2023-03-11T00:45:08.502Z,45.72
2023-03-11T00:46:09.322Z,45.77
2023-03-11T00:47:10.136Z,45.81
2023-03-11T00:48:10.680Z,45.78
2023-03-11T00:49:11.484Z,45.72
2023-03-11T00:50:12.366Z,45.65
2023-03-11T00:51:12.861Z,45.61
2023-03-11T00:52:13.664Z,45.57
2023-03-11T00:53:14.469Z,45.52
2023-03-11T00:54:15.014Z,45.52
2023-03-11T00:55:15.842Z,45.56
2023-03-11T00:56:16.634Z,45.65
2023-03-11T00:57:17.186Z,45.65
2023-03-11T00:58:17.986Z,45.68
2023-03-11T00:59:18.788Z,45.72
2023-03-11T01:00:19.350Z,45.76
2023-03-11T01:01:20.230Z,45.79
2023-03-11T01:02:21.001Z,45.77
2023-03-11T01:03:21.602Z,45.79
2023-03-11T01:04:22.434Z,45.79
2023-03-11T01:05:23.203Z,45.79
2023-03-11T01:06:26.109Z,45.83
2023-03-11T01:07:24.908Z,45.85
2023-03-11T01:08:25.437Z,45.87
2023-03-11T01:09:26.239Z,45.88
2023-03-11T01:10:27.052Z,45.84
2023-03-11T01:11:27.650Z,45.91
2023-03-11T01:12:28.386Z,45.92
2023-03-11T01:13:29.207Z,45.92
2023-03-11T01:14:29.741Z,45.98
2023-03-11T01:15:30.584Z,45.94
2023-03-11T01:16:31.368Z,45.83
2023-03-11T01:17:31.922Z,45.79
2023-03-11T01:18:32.730Z,45.74
2023-03-11T01:19:33.533Z,45.71
2023-03-11T01:20:34.106Z,45.62
2023-03-11T01:21:34.890Z,45.55
2023-03-11T01:22:35.688Z,45.31
2023-03-11T01:23:36.241Z,45.28
2023-03-11T01:24:37.031Z,45.27
2023-03-11T01:25:37.843Z,45.17
2023-03-11T01:26:38.382Z,45.19
2023-03-11T01:27:39.188Z,45.18
2023-03-11T01:28:39.999Z,45.20
2023-03-11T01:29:40.550Z,45.22
2023-03-11T01:30:41.490Z,45.19
2023-03-11T01:31:42.309Z,45.14
2023-03-11T01:32:42.891Z,45.10
2023-03-11T01:33:43.676Z,45.04
2023-03-11T01:34:44.501Z,45.06
2023-03-11T01:35:45.105Z,45.01
2023-03-11T01:36:45.877Z,44.95
2023-03-11T01:37:46.687Z,44.99
2023-03-11T01:38:47.226Z,44.92
2023-03-11T01:39:48.031Z,44.86
2023-03-11T01:40:48.862Z,44.87
2023-03-11T01:41:49.424Z,44.88
2023-03-11T01:42:50.213Z,44.89
2023-03-11T01:43:51.022Z,44.91
2023-03-11T01:44:51.560Z,44.93
2023-03-11T01:45:52.390Z,44.94
2023-03-11T01:46:53.339Z,44.93
2023-03-11T01:47:53.858Z,44.75
2023-03-11T01:48:54.663Z,44.68
2023-03-11T01:49:55.463Z,44.71
2023-03-11T01:50:56.028Z,44.76
2023-03-11T01:51:56.841Z,44.80
2023-03-11T01:52:57.647Z,44.85
2023-03-11T01:53:58.196Z,44.79
2023-03-11T01:54:58.994Z,44.81
2023-03-11T01:55:59.817Z,44.77
2023-03-11T01:57:00.352Z,44.80
2023-03-11T01:58:01.146Z,44.82
2023-03-11T01:59:01.957Z,44.82
2023-03-11T02:00:02.504Z,44.81
2023-03-11T02:01:03.329Z,44.85
2023-03-11T02:02:04.235Z,44.75
2023-03-11T02:03:04.837Z,44.71
2023-03-11T02:04:05.588Z,44.71
2023-03-11T02:05:06.388Z,44.72
2023-03-11T02:06:06.943Z,44.72
2023-03-11T02:07:07.747Z,44.64
2023-03-11T02:08:08.544Z,44.60
2023-03-11T02:09:09.086Z,44.50
2023-03-11T02:10:09.895Z,44.50
2023-03-11T02:11:10.715Z,44.53
2023-03-11T02:12:11.270Z,44.59
2023-03-11T02:13:12.077Z,44.58
2023-03-11T02:14:12.864Z,44.58
2023-03-11T02:15:13.412Z,44.56
2023-03-11T02:16:14.307Z,44.59
2023-03-11T02:17:15.095Z,44.57
2023-03-11T02:18:15.637Z,44.60
2023-03-11T02:19:16.443Z,44.57
2023-03-11T02:20:17.250Z,44.53
2023-03-11T02:21:17.817Z,44.52
2023-03-11T02:22:18.626Z,44.55
2023-03-11T02:23:19.426Z,44.56
2023-03-11T02:24:20.165Z,44.56
2023-03-11T02:25:20.989Z,44.61
2023-03-11T02:26:21.799Z,44.60
2023-03-11T02:27:22.355Z,44.66
2023-03-11T02:28:23.144Z,44.68
2023-03-11T02:29:23.957Z,44.69
2023-03-11T02:30:24.508Z,44.75
2023-03-11T02:31:25.400Z,44.77
2023-03-11T02:32:26.386Z,44.78
2023-03-11T02:33:26.944Z,44.79
2023-03-11T02:34:27.751Z,44.83
2023-03-11T02:35:28.552Z,44.86
2023-03-11T02:36:29.154Z,44.88
2023-03-11T02:37:29.954Z,44.91
2023-03-11T02:38:30.754Z,44.95
2023-03-11T02:39:31.293Z,44.96
2023-03-11T02:40:32.091Z,44.94
2023-03-11T02:41:32.915Z,44.95
2023-03-11T02:42:33.459Z,44.97
2023-03-11T02:43:34.258Z,44.97
2023-03-11T02:44:35.078Z,44.96
2023-03-11T02:45:35.632Z,44.88
2023-03-11T02:46:36.506Z,44.91
2023-03-11T02:47:37.260Z,44.88
2023-03-11T02:48:37.803Z,44.89
2023-03-11T02:49:38.612Z,44.86
2023-03-11T02:50:39.415Z,44.86
2023-03-11T02:51:39.992Z,44.89
2023-03-11T02:52:40.778Z,44.87
2023-03-11T02:53:41.594Z,44.90
2023-03-11T02:54:42.133Z,44.90
2023-03-11T02:55:42.947Z,44.91
2023-03-11T02:56:43.762Z,44.92
2023-03-11T02:57:44.310Z,44.96
2023-03-11T02:58:45.111Z,44.99
2023-03-11T02:59:45.910Z,45.03
2023-03-11T03:00:46.551Z,45.01
2023-03-11T03:01:47.437Z,45.03
2023-03-11T03:02:48.240Z,45.03
2023-03-11T03:03:48.801Z,45.03
2023-03-11T03:04:49.590Z,45.02
2023-03-11T03:05:50.388Z,45.02
2023-03-11T03:06:50.944Z,44.98
2023-03-11T03:07:51.760Z,44.96
2023-03-11T03:08:52.562Z,44.96
2023-03-11T03:09:53.125Z,44.99
2023-03-11T03:10:53.952Z,44.97
2023-03-11T03:11:54.740Z,45.01
2023-03-11T03:12:55.289Z,45.02
2023-03-11T03:13:56.091Z,45.01
2023-03-11T03:14:56.872Z,45.02
2023-03-11T03:15:57.414Z,45.01
2023-03-11T03:16:58.434Z,45.02
2023-03-11T03:17:59.256Z,45.05
2023-03-11T03:18:59.813Z,45.04
2023-03-11T03:20:00.615Z,45.02
2023-03-11T03:21:01.398Z,45.01
2023-03-11T03:22:01.984Z,45.00
2023-03-11T03:23:02.766Z,45.00
2023-03-11T03:24:03.572Z,45.04
2023-03-11T03:25:04.113Z,45.04
2023-03-11T03:26:04.921Z,45.03
2023-03-11T03:27:05.744Z,45.04
2023-03-11T03:28:06.298Z,45.05
2023-03-11T03:29:07.099Z,45.07
2023-03-11T03:30:07.902Z,45.11
2023-03-11T03:31:08.447Z,45.14
2023-03-11T03:32:09.355Z,45.15
2023-03-11T03:33:10.137Z,45.20
2023-03-11T03:34:10.682Z,45.26
2023-03-11T03:35:11.503Z,45.31
2023-03-11T03:36:12.349Z,45.34
2023-03-11T03:37:12.881Z,45.40
2023-03-11T03:38:13.685Z,45.42
2023-03-11T03:39:14.479Z,45.47
2023-03-11T03:40:15.020Z,45.49
2023-03-11T03:41:15.829Z,45.50
2023-03-11T03:42:16.644Z,45.51
2023-03-11T03:43:17.186Z,45.55
2023-03-11T03:44:17.982Z,45.62
2023-03-11T03:45:18.777Z,45.62
2023-03-11T03:46:19.362Z,45.59
2023-03-11T03:47:20.157Z,45.63
2023-03-11T03:48:20.966Z,45.67
2023-03-11T03:49:21.507Z,45.73
2023-03-11T03:50:22.314Z,45.70
2023-03-11T03:51:23.106Z,45.67
2023-03-11T03:52:23.674Z,45.67
2023-03-11T03:53:24.458Z,45.76
2023-03-11T03:54:25.269Z,45.78
2023-03-11T03:55:25.815Z,45.79
2023-03-11T03:56:26.628Z,45.80
2023-03-11T03:57:27.443Z,45.81
2023-03-11T03:58:27.997Z,45.83
2023-03-11T03:59:28.787Z,45.82
2023-03-11T04:00:29.598Z,45.83
2023-03-11T04:01:30.139Z,45.85
2023-03-11T04:02:31.024Z,45.87
2023-03-11T04:03:31.890Z,45.89
2023-03-11T04:04:32.409Z,45.93
2023-03-11T04:05:33.217Z,45.94
2023-03-11T04:06:34.018Z,45.95
2023-03-11T04:07:34.583Z,45.96
2023-03-11T04:08:35.390Z,45.99
2023-03-11T04:09:36.199Z,45.97
2023-03-11T04:10:36.752Z,46.00
2023-03-11T04:11:37.534Z,46.01
2023-03-11T04:12:38.366Z,46.05
2023-03-11T04:13:38.910Z,46.09
2023-03-11T04:14:39.777Z,46.12
2023-03-11T04:15:40.589Z,46.16
2023-03-11T04:16:41.169Z,46.13
2023-03-11T04:17:41.961Z,46.18
2023-03-11T04:18:42.749Z,46.22
2023-03-11T04:19:43.299Z,46.21
2023-03-11T04:20:44.101Z,46.20
2023-03-11T04:21:44.905Z,46.22
2023-03-11T04:22:45.463Z,46.23
2023-03-11T04:23:46.273Z,46.24
2023-03-11T04:24:47.079Z,46.23
2023-03-11T04:25:47.629Z,46.25
2023-03-11T04:26:48.493Z,46.26
2023-03-11T04:27:49.307Z,46.29
2023-03-11T04:28:49.862Z,46.28
2023-03-11T04:29:50.656Z,46.26
2023-03-11T04:30:51.518Z,46.26
2023-03-11T04:31:52.008Z,46.26
2023-03-11T04:32:52.860Z,46.24
2023-03-11T04:33:53.658Z,46.22
2023-03-11T04:34:54.219Z,46.22
2023-03-11T04:35:55.041Z,46.22
2023-03-11T04:36:55.810Z,46.25
2023-03-11T04:37:56.378Z,46.31
2023-03-11T04:38:57.164Z,46.34
2023-03-11T04:39:57.944Z,46.33
2023-03-11T04:40:58.477Z,46.31
2023-03-11T04:41:59.271Z,46.33
2023-03-11T04:43:00.118Z,46.35
2023-03-11T04:44:00.628Z,46.34
2023-03-11T04:45:01.464Z,46.41
2023-03-11T04:46:02.287Z,46.41
2023-03-11T04:47:02.805Z,46.43
2023-03-11T04:48:03.624Z,46.43
2023-03-11T04:49:04.427Z,46.42
2023-03-11T04:50:04.968Z,46.42
2023-03-11T04:51:05.777Z,46.44
2023-03-11T04:52:06.567Z,46.44
2023-03-11T04:53:07.138Z,46.48
2023-03-11T04:54:07.949Z,46.49
2023-03-11T04:55:08.753Z,46.46
2023-03-11T04:56:09.296Z,46.50
2023-03-11T04:57:10.102Z,46.53
2023-03-11T04:58:10.909Z,46.55
2023-03-11T04:59:11.464Z,46.53
2023-03-11T05:00:12.264Z,46.56
2023-03-11T05:01:13.093Z,46.54
2023-03-11T05:02:13.611Z,46.57
2023-03-11T05:03:14.564Z,46.59
2023-03-11T05:04:15.354Z,46.60
2023-03-11T05:05:15.814Z,46.60
2023-03-11T05:06:16.638Z,46.61
2023-03-11T05:07:17.430Z,46.65
2023-03-11T05:08:17.941Z,46.61
2023-03-11T05:09:18.697Z,46.51
2023-03-11T05:10:19.489Z,46.43
2023-03-11T05:11:20.038Z,46.34
2023-03-11T05:12:20.855Z,46.21
2023-03-11T05:13:21.628Z,46.11
2023-03-11T05:14:22.131Z,46.04
2023-03-11T05:15:22.878Z,46.01
2023-03-11T05:16:23.720Z,45.95
2023-03-11T05:17:24.196Z,45.81
2023-03-11T05:18:24.965Z,45.72
2023-03-11T05:19:25.728Z,45.65
2023-03-11T05:20:26.198Z,45.56
2023-03-11T05:21:26.955Z,45.42
2023-03-11T05:22:27.699Z,45.37
2023-03-11T05:23:28.701Z,45.24
2023-03-11T05:24:29.455Z,45.24
2023-03-11T05:25:30.357Z,45.19
2023-03-11T05:26:30.848Z,45.26
2023-03-11T05:27:31.599Z,45.26
2023-03-11T05:28:32.371Z,45.26
2023-03-11T05:29:32.871Z,45.27
2023-03-11T05:30:33.655Z,45.27
2023-03-11T05:31:34.412Z,45.26
2023-03-11T05:32:34.919Z,45.22
2023-03-11T05:33:35.680Z,45.25
2023-03-11T05:34:36.416Z,45.23
2023-03-11T05:35:37.458Z,45.27
2023-03-11T05:36:38.177Z,45.28
2023-03-11T05:37:39.428Z,45.20
2023-03-11T05:38:39.933Z,45.14
2023-03-11T05:39:40.683Z,45.13
2023-03-11T05:40:41.437Z,45.12
2023-03-11T05:41:41.924Z,45.19
2023-03-11T05:42:42.673Z,45.13
2023-03-11T05:43:43.447Z,45.03
2023-03-11T05:44:43.931Z,44.98
2023-03-11T05:45:44.694Z,44.98
2023-03-11T05:46:45.490Z,44.97
2023-03-11T05:47:45.955Z,44.99
2023-03-11T05:48:46.736Z,44.98
2023-03-11T05:49:47.485Z,44.90
2023-03-11T05:50:47.981Z,44.83
2023-03-11T05:51:48.728Z,44.74
2023-03-11T05:52:49.512Z,44.67
2023-03-11T05:53:50.010Z,44.62
2023-03-11T05:54:50.759Z,44.59
2023-03-11T05:55:51.511Z,44.60
2023-03-11T05:56:52.004Z,44.58
2023-03-11T05:57:52.802Z,44.46
2023-03-11T05:58:53.541Z,44.45
2023-03-11T05:59:54.032Z,44.47
2023-03-11T06:00:54.781Z,44.42
2023-03-11T06:01:56.036Z,44.38
2023-03-11T06:02:56.515Z,44.42
2023-03-11T06:03:57.433Z,44.37
2023-03-11T06:04:58.312Z,44.35
2023-03-11T06:05:58.855Z,44.31
2023-03-11T06:06:59.615Z,44.26
2023-03-11T06:08:00.843Z,44.27
2023-03-11T06:09:01.345Z,44.22
2023-03-11T06:10:02.099Z,44.15
2023-03-11T06:11:02.862Z,44.08
2023-03-11T06:12:03.834Z,43.95
2023-03-11T06:13:04.584Z,43.95
2023-03-11T06:14:05.355Z,44.01
2023-03-11T06:15:05.841Z,44.03
2023-03-11T06:16:06.653Z,44.00
2023-03-11T06:17:07.345Z,43.99
2023-03-11T06:18:08.333Z,43.96
2023-03-11T06:19:09.091Z,43.96
2023-03-11T06:20:09.860Z,43.93
2023-03-11T06:21:10.335Z,43.92
2023-03-11T06:22:11.091Z,43.92
2023-03-11T06:23:11.853Z,43.86
2023-03-11T06:24:12.366Z,43.86
2023-03-11T06:25:13.109Z,43.84
2023-03-11T06:26:13.859Z,43.80
2023-03-11T06:27:14.360Z,43.74
2023-03-11T06:28:15.106Z,43.69
2023-03-11T06:29:16.375Z,43.65
2023-03-11T06:30:16.860Z,43.58
2023-03-11T06:31:17.624Z,43.48
2023-03-11T06:32:18.418Z,43.39
2023-03-11T06:33:18.879Z,43.37
2023-03-11T06:34:19.673Z,43.33
2023-03-11T06:35:20.402Z,43.28
2023-03-11T06:36:21.383Z,43.21
2023-03-11T06:37:22.139Z,43.14
2023-03-11T06:38:22.883Z,43.09
2023-03-11T06:39:23.394Z,43.04
2023-03-11T06:40:24.140Z,43.00
2023-03-11T06:41:25.389Z,42.94
2023-03-11T06:42:25.877Z,42.86
2023-03-11T06:43:26.626Z,42.77
2023-03-11T06:44:27.393Z,42.71
2023-03-11T06:45:27.943Z,42.66
2023-03-11T06:46:28.721Z,42.55
2023-03-11T06:47:29.485Z,42.49
2023-03-11T06:48:29.969Z,42.40
2023-03-11T06:49:30.741Z,42.29
2023-03-11T06:50:31.481Z,42.21
2023-03-11T06:51:32.474Z,42.15
2023-03-11T06:52:33.222Z,42.04
2023-03-11T06:53:33.978Z,41.98
2023-03-11T06:54:34.485Z,41.98
2023-03-11T06:55:35.238Z,41.96
2023-03-11T06:56:35.990Z,42.02
2023-03-11T06:57:36.483Z,42.08
2023-03-11T06:58:37.227Z,42.18
2023-03-11T06:59:38.536Z,42.12
2023-03-11T07:00:40.492Z,42.14
2023-03-11T07:01:39.638Z,42.13
2023-03-11T07:02:40.380Z,42.11
2023-03-11T07:03:41.646Z,42.08
2023-03-11T07:04:42.123Z,42.04
2023-03-11T07:05:42.854Z,42.03
2023-03-11T07:06:43.605Z,41.99
2023-03-11T07:07:44.094Z,41.93
2023-03-11T07:08:44.851Z,41.87
2023-03-11T07:09:45.622Z,41.74
2023-03-11T07:10:46.096Z,41.57
2023-03-11T07:11:46.854Z,41.46
2023-03-11T07:12:47.588Z,41.36
2023-03-11T07:13:48.589Z,41.30
2023-03-11T07:14:49.354Z,41.25
2023-03-11T07:15:50.102Z,41.12
2023-03-11T07:16:50.693Z,41.16
2023-03-11T07:17:51.451Z,41.15
2023-03-11T07:18:52.190Z,41.04
2023-03-11T07:19:52.694Z,40.97
2023-03-11T07:20:53.428Z,40.96
2023-03-11T07:21:54.694Z,40.96
2023-03-11T07:22:55.199Z,40.99
2023-03-11T07:23:55.958Z,41.10
2023-03-11T07:24:57.202Z,41.27
2023-03-11T07:25:57.700Z,41.35
2023-03-11T07:26:58.521Z,41.42
2023-03-11T07:27:59.258Z,41.43
2023-03-11T07:28:59.746Z,41.49
2023-03-11T07:30:00.497Z,41.57
2023-03-11T07:31:01.241Z,41.61
2023-03-11T07:32:01.946Z,41.65
2023-03-11T07:33:02.638Z,41.72
2023-03-11T07:34:03.899Z,41.75
2023-03-11T07:35:04.389Z,41.70
2023-03-11T07:36:05.226Z,41.55
2023-03-11T07:37:05.985Z,41.52
2023-03-11T07:38:06.471Z,41.46
2023-03-11T07:39:07.228Z,41.51
2023-03-11T07:40:07.984Z,41.54
2023-03-11T07:41:08.473Z,41.38
2023-03-11T07:42:09.228Z,41.30
2023-03-11T07:43:09.978Z,41.29
2023-03-11T07:44:10.558Z,41.29
2023-03-11T07:45:11.319Z,41.27
2023-03-11T07:46:12.133Z,41.15
2023-03-11T07:47:12.612Z,41.12
2023-03-11T07:48:13.373Z,41.11
2023-03-11T07:49:14.122Z,41.06
2023-03-11T07:50:14.617Z,41.03
2023-03-11T07:51:15.361Z,41.11
2023-03-11T07:52:16.640Z,41.07
2023-03-11T07:53:17.130Z,41.00
2023-03-11T07:54:17.878Z,40.94
2023-03-11T07:55:18.631Z,40.88
2023-03-11T07:56:19.123Z,40.86
2023-03-11T07:57:19.883Z,40.87
2023-03-11T07:58:20.633Z,40.83
2023-03-11T07:59:21.131Z,40.82
2023-03-11T08:00:21.894Z,40.80
2023-03-11T08:01:22.654Z,40.73
2023-03-11T08:02:23.192Z,40.58
2023-03-11T08:03:23.951Z,40.44
2023-03-11T08:04:24.666Z,40.34
2023-03-11T08:05:25.147Z,40.16
2023-03-11T08:06:25.916Z,40.00
2023-03-11T08:07:26.678Z,39.87
2023-03-11T08:08:27.200Z,39.85
2023-03-11T08:09:27.950Z,39.71
2023-03-11T08:10:28.733Z,39.66
2023-03-11T08:11:29.223Z,39.65
2023-03-11T08:12:29.975Z,39.64
2023-03-11T08:13:30.721Z,39.47
2023-03-11T08:14:31.743Z,39.36
2023-03-11T08:15:32.528Z,39.26
2023-03-11T08:16:33.254Z,39.07
2023-03-11T08:17:33.749Z,38.96
2023-03-11T08:18:34.524Z,39.00
2023-03-11T08:19:35.261Z,39.06
2023-03-11T08:20:35.752Z,39.07
2023-03-11T08:21:36.509Z,38.99
2023-03-11T08:22:43.386Z,38.99
2023-03-11T08:23:38.899Z,39.00
2023-03-11T08:24:39.137Z,38.95
2023-03-11T08:25:40.398Z,38.85
2023-03-11T08:26:40.896Z,38.72
2023-03-11T08:27:41.676Z,38.65
2023-03-11T08:28:42.403Z,38.35
2023-03-11T08:29:42.892Z,38.11
2023-03-11T08:30:43.670Z,37.98
2023-03-11T08:31:44.410Z,37.85
2023-03-11T08:32:44.955Z,37.87
2023-03-11T08:33:45.666Z,37.83
2023-03-11T08:34:46.461Z,37.54
2023-03-11T08:35:46.999Z,37.26
2023-03-11T08:36:47.854Z,36.99
2023-03-11T08:37:48.617Z,36.92
2023-03-11T08:38:49.138Z,36.91
2023-03-11T08:39:49.857Z,36.92
2023-03-11T08:40:51.116Z,37.01
2023-03-11T08:41:51.599Z,37.05
2023-03-11T08:42:52.366Z,36.99
2023-03-11T08:43:53.112Z,37.11
2023-03-11T08:44:53.681Z,37.13
2023-03-11T08:45:54.422Z,36.96
2023-03-11T08:46:55.211Z,36.88
2023-03-11T08:47:55.715Z,36.93
2023-03-11T08:48:57.210Z,36.93
2023-03-11T08:49:57.112Z,37.10
2023-03-11T08:50:57.860Z,36.92
2023-03-11T08:51:59.115Z,36.65
2023-03-11T08:53:00.365Z,36.47
2023-03-11T08:54:00.863Z,36.53
2023-03-11T08:55:01.613Z,36.57
2023-03-11T08:56:02.366Z,36.69
2023-03-11T08:57:03.367Z,36.79
2023-03-11T08:58:04.127Z,36.76
2023-03-11T08:59:04.912Z,36.64
2023-03-11T09:00:05.394Z,36.56
2023-03-11T09:01:06.147Z,36.46
2023-03-11T09:02:06.880Z,36.36
2023-03-11T09:03:07.932Z,36.07
2023-03-11T09:04:08.635Z,35.79
2023-03-11T09:05:09.874Z,35.75
2023-03-11T09:06:10.447Z,35.62
2023-03-11T09:07:11.168Z,35.60
2023-03-11T09:08:11.932Z,35.44
2023-03-11T09:09:12.442Z,35.09
2023-03-11T09:10:13.190Z,34.67
2023-03-11T09:11:13.943Z,34.55
2023-03-11T09:12:14.415Z,34.56
2023-03-11T09:13:15.186Z,34.48
2023-03-11T09:14:15.931Z,34.49
2023-03-11T09:15:16.415Z,34.36
2023-03-11T09:16:17.230Z,34.43
2023-03-11T09:17:17.968Z,34.47
2023-03-11T09:18:18.955Z,34.55
2023-03-11T09:19:19.708Z,34.51
2023-03-11T09:20:20.456Z,34.64
2023-03-11T09:21:20.950Z,34.70
2023-03-11T09:22:21.692Z,34.53
2023-03-11T09:23:22.458Z,34.33
2023-03-11T09:24:22.947Z,34.11
2023-03-11T09:25:23.718Z,34.00
2023-03-11T09:26:24.442Z,33.95
2023-03-11T09:27:25.450Z,34.00
2023-03-11T09:28:26.209Z,34.07
2023-03-11T09:29:26.943Z,34.08
2023-03-11T09:30:27.446Z,34.06
2023-03-11T09:31:28.367Z,33.97
2023-03-11T09:32:29.132Z,33.90
2023-03-11T09:33:30.121Z,33.89
2023-03-11T09:34:30.859Z,33.67
2023-03-11T09:35:32.132Z,33.47
2023-03-11T09:36:32.598Z,33.43
2023-03-11T09:37:33.359Z,33.01
2023-03-11T09:38:34.119Z,32.53
2023-03-11T09:39:34.606Z,32.05
2023-03-11T09:40:35.353Z,31.45
2023-03-11T09:41:44.949Z,31.14
2023-03-11T09:42:38.219Z,31.20
2023-03-11T09:43:38.466Z,31.27
2023-03-11T09:44:38.943Z,31.11
2023-03-11T09:45:39.676Z,31.03
2023-03-11T09:46:40.938Z,30.98
2023-03-11T09:47:42.148Z,30.72
2023-03-11T09:48:42.685Z,30.44
2023-03-11T09:49:43.437Z,30.06
2023-03-11T09:50:44.180Z,29.65
2023-03-11T09:51:45.178Z,29.61
2023-03-11T09:52:45.931Z,29.56
2023-03-11T09:53:46.687Z,29.73
2023-03-11T09:54:47.230Z,29.76
2023-03-11T09:55:47.995Z,29.81
2023-03-11T09:56:48.733Z,30.11
2023-03-11T09:57:49.224Z,30.26
2023-03-11T09:58:50.000Z,30.40
2023-03-11T09:59:50.750Z,30.28
2023-03-11T10:00:51.243Z,29.91
2023-03-11T10:01:52.032Z,29.46
2023-03-11T10:02:52.861Z,29.15
2023-03-11T10:03:53.344Z,29.08
2023-03-11T10:04:54.086Z,29.16
2023-03-11T10:05:55.337Z,29.17
2023-03-11T10:06:55.856Z,29.09
2023-03-11T10:07:56.577Z,29.08
2023-03-11T10:08:57.335Z,29.04
2023-03-11T10:09:57.846Z,28.94
2023-03-11T10:10:58.581Z,28.81
2023-03-11T10:11:59.357Z,28.92
2023-03-11T10:12:59.829Z,29.30
2023-03-11T10:14:00.601Z,29.55
2023-03-11T10:15:01.330Z,30.04
2023-03-11T10:16:02.370Z,30.37
2023-03-11T10:17:03.122Z,30.63
2023-03-11T10:18:04.380Z,30.56
2023-03-11T10:19:04.888Z,30.60
2023-03-11T10:20:05.633Z,30.45
2023-03-11T10:21:06.429Z,30.07
2023-03-11T10:22:07.411Z,29.92
2023-03-11T10:23:08.159Z,29.74
2023-03-11T10:24:08.932Z,29.50
2023-03-11T10:25:09.416Z,29.16
2023-03-11T10:26:10.174Z,28.89
2023-03-11T10:27:10.929Z,28.57
2023-03-11T10:28:11.914Z,28.44
2023-03-11T10:29:12.674Z,28.26
2023-03-11T10:30:13.413Z,28.05
2023-03-11T10:31:13.975Z,28.34
2023-03-11T10:32:14.726Z,28.60
2023-03-11T10:33:15.435Z,28.86
2023-03-11T10:34:15.947Z,29.09
2023-03-11T10:35:16.728Z,29.31
2023-03-11T10:36:17.947Z,29.49
2023-03-11T10:37:18.493Z,29.78
2023-03-11T10:38:19.173Z,29.90
2023-03-11T10:39:20.447Z,29.91
2023-03-11T10:40:23.607Z,29.87
2023-03-11T10:41:21.732Z,29.70
2023-03-11T10:42:22.470Z,29.23
2023-03-11T10:43:23.708Z,28.96
2023-03-11T10:44:24.717Z,28.75
2023-03-11T10:45:25.454Z,28.43
2023-03-11T10:46:26.195Z,28.04
2023-03-11T10:47:26.700Z,27.89
2023-03-11T10:48:27.446Z,27.55
2023-03-11T10:49:28.734Z,27.10
2023-03-11T10:50:29.217Z,26.82
2023-03-11T10:51:29.964Z,26.59
2023-03-11T10:52:30.936Z,26.75
2023-03-11T10:53:31.369Z,26.94
2023-03-11T10:54:32.136Z,26.69
2023-03-11T10:55:32.877Z,26.43
2023-03-11T10:56:33.368Z,26.04
2023-03-11T10:57:34.134Z,25.83
2023-03-11T10:58:34.885Z,25.92
2023-03-11T10:59:35.399Z,26.09
2023-03-11T11:00:36.145Z,26.04
2023-03-11T11:01:36.986Z,25.99
2023-03-11T11:02:37.424Z,25.98
2023-03-11T11:03:38.175Z,25.64
2023-03-11T11:04:38.936Z,25.21
2023-03-11T11:05:39.434Z,25.30
2023-03-11T11:06:40.172Z,25.38
2023-03-11T11:07:41.417Z,25.40
2023-03-11T11:08:42.662Z,25.41
2023-03-11T11:09:43.670Z,25.43
2023-03-11T11:10:44.419Z,25.36
2023-03-11T11:11:45.669Z,25.59
2023-03-11T11:12:46.151Z,25.76
2023-03-11T11:13:46.909Z,25.85
2023-03-11T11:14:47.666Z,25.56
2023-03-11T11:15:48.158Z,25.09
2023-03-11T11:16:48.930Z,23.58
2023-03-11T11:17:49.667Z,23.36
2023-03-11T11:18:50.142Z,23.37
2023-03-11T11:19:50.912Z,23.79
2023-03-11T11:20:51.650Z,23.64
2023-03-11T11:21:52.648Z,23.31
2023-03-11T11:22:53.395Z,22.26
2023-03-11T11:23:54.646Z,20.90
2023-03-11T11:24:55.223Z,20.60
2023-03-11T11:25:55.945Z,21.17
2023-03-11T11:26:56.680Z,21.65
2023-03-11T11:27:57.172Z,20.94
2023-03-11T11:28:57.920Z,19.40
2023-03-11T11:29:58.703Z,19.75
2023-03-11T11:30:59.253Z,20.38
2023-03-11T11:31:59.962Z,20.23
2023-03-11T11:33:00.706Z,20.51
2023-03-11T11:34:01.215Z,20.79
2023-03-11T11:35:01.972Z,21.22
2023-03-11T11:36:02.724Z,21.43
2023-03-11T11:37:03.222Z,21.67
2023-03-11T11:38:03.965Z,21.15
2023-03-11T11:39:04.711Z,21.22
2023-03-11T11:40:05.744Z,21.65
2023-03-11T11:41:06.464Z,22.03
2023-03-11T11:42:07.713Z,22.25
2023-03-11T11:43:08.202Z,22.46
2023-03-11T11:44:08.958Z,22.75
2023-03-11T11:45:09.721Z,22.89
2023-03-11T11:46:10.244Z,23.03
2023-03-11T11:47:10.949Z,23.28
2023-03-11T11:48:12.213Z,23.25
2023-03-11T11:49:12.708Z,22.20
2023-03-11T11:50:13.504Z,22.35
2023-03-11T11:51:14.257Z,22.56
2023-03-11T11:52:15.253Z,22.92
2023-03-11T11:53:16.004Z,23.03
2023-03-11T11:54:16.757Z,22.89
2023-03-11T11:55:17.272Z,23.17
2023-03-11T11:56:18.051Z,22.24
2023-03-11T11:57:18.766Z,20.23
2023-03-11T11:58:19.742Z,19.26
2023-03-11T11:59:20.490Z,19.14
2023-03-11T12:00:21.328Z,19.67
2023-03-11T12:01:21.812Z,20.43
2023-03-11T12:02:22.556Z,19.30
2023-03-11T12:03:23.326Z,18.92
2023-03-11T12:04:24.294Z,17.73
2023-03-11T12:05:25.208Z,16.63
2023-03-11T12:06:25.933Z,16.07
2023-03-11T12:07:26.910Z,15.76
2023-03-11T12:08:27.663Z,15.63
2023-03-11T12:09:28.913Z,16.42
2023-03-11T12:10:29.427Z,16.76
2023-03-11T12:11:30.157Z,17.75
2023-03-11T12:12:30.905Z,18.53
2023-03-11T12:13:31.395Z,19.09
2023-03-11T12:14:32.141Z,19.45
2023-03-11T12:15:32.974Z,19.75
2023-03-11T12:16:33.423Z,20.06
2023-03-11T12:17:34.168Z,20.48
2023-03-11T12:18:35.427Z,20.74
2023-03-11T12:19:35.910Z,20.95
2023-03-11T12:20:36.683Z,21.07
2023-03-11T12:21:37.431Z,21.03
2023-03-11T12:22:37.936Z,19.10
2023-03-11T12:23:38.689Z,17.96
2023-03-11T12:24:39.924Z,16.81
2023-03-11T12:25:40.423Z,16.17
2023-03-11T12:26:41.169Z,17.14
2023-03-11T12:27:41.921Z,17.26
2023-03-11T12:28:42.419Z,16.45
2023-03-11T12:29:43.433Z,15.42
2023-03-11T12:30:44.170Z,14.66
2023-03-11T12:31:44.655Z,14.14
2023-03-11T12:32:45.449Z,13.48
2023-03-11T12:33:46.165Z,13.30
2023-03-11T12:34:48.879Z,12.92
2023-03-11T12:35:47.940Z,12.36
2023-03-11T12:36:48.636Z,13.23
2023-03-11T12:37:49.885Z,13.72
2023-03-11T12:38:50.364Z,12.86
2023-03-11T12:39:51.101Z,12.54
2023-03-11T12:40:51.877Z,12.28
2023-03-11T12:41:52.372Z,11.87
2023-03-11T12:42:53.107Z,11.65
2023-03-11T12:43:53.850Z,11.70
2023-03-11T12:44:54.845Z,11.59
2023-03-11T12:45:55.673Z,11.80
2023-03-11T12:46:56.455Z,11.73
2023-03-11T12:47:56.915Z,12.88
2023-03-11T12:48:57.676Z,13.86
2023-03-11T12:49:58.426Z,14.46
2023-03-11T12:50:58.999Z,14.89
2023-03-11T12:51:59.738Z,15.28
2023-03-11T12:53:00.490Z,15.05
2023-03-11T12:54:00.983Z,15.06
2023-03-11T12:55:01.739Z,15.31
2023-03-11T12:56:02.515Z,14.38
2023-03-11T12:57:02.999Z,13.80
2023-03-11T12:58:03.744Z,13.28
2023-03-11T12:59:05.001Z,13.38
2023-03-11T13:00:05.483Z,13.04
2023-03-11T13:01:06.245Z,12.68
2023-03-11T13:02:07.018Z,12.46